Time;durP1;ratioP1;P1;durP2;ratioP2;P2;SDS_P1;SDS_P2;PMS_P1;PMS_P2;Temp;Humidity;BMP_temperature;BMP_pressure;BME280_temperature;BME280_humidity;BME280_pressure;Samples;Min_cycle;Max_cycle;Signal;HPM_P1;HPM_P2
2021/01/03 00:00:30;;;;;;;;;;;;;;;1.51;85.17;98832.59;5047999;28;19920;-84
2021/01/03 00:02:55;;;;;;;;;;;;;;;1.59;84.81;98830.88;5056442;28;19924;-85
2021/01/03 00:05:22;;;;;;;;;;;;;;;1.54;85.48;98824.97;5064363;28;20011;-85
2021/01/03 00:07:47;;;;;;;;;;;;;;;1.33;84.68;98818.16;5048474;28;19916;-85
2021/01/03 00:10:13;;;;;;;;;;;;;;;1.30;86.27;98823.22;5040053;28;19916;-85
2021/01/03 00:12:38;;;;;;;;;;;;;;;1.34;85.16;98822.38;5065217;28;19969;-85
2021/01/03 00:15:08;;;;;;;;;;;;;;;1.38;84.68;98817.31;5049081;28;19962;-85
2021/01/03 00:17:34;;;;;;;;;;;;;;;1.54;84.80;98813.13;5048906;28;19924;-85
2021/01/03 00:19:59;;;;;;;;;;;;;;;1.29;85.04;98821.53;5048793;28;19927;-84
2021/01/03 00:22:24;;;;;;;;;;;;;;;1.39;85.96;98818.16;5047949;28;20361;-85
2021/01/03 00:24:50;;;;;;;;;;;;;;;1.37;83.14;98814.75;5064603;28;19916;-83
2021/01/03 00:27:16;;;;;;;;;;;;;;;1.29;85.58;98819.00;5050569;28;19963;-85
2021/01/03 00:29:42;;;;;;;;;;;;;;;1.12;83.92;98819.81;5058022;28;19916;-84
2021/01/03 00:32:07;;;;;;;;;;;;;;;1.12;85.24;98819.81;5065997;28;20297;-85
2021/01/03 00:34:32;;;;;;;;;;;;;;;1.12;83.40;98819.81;5049158;28;20457;-84
2021/01/03 00:36:58;;;;;;;;;;;;;;;1.34;84.51;98810.53;5056520;28;19924;-85
2021/01/03 00:39:23;;;;;;;;;;;;;;;1.38;85.52;98806.31;5055775;28;19959;-85
2021/01/03 00:41:50;;;;;;;;;;;;;;;1.21;84.61;98812.22;5047626;28;19920;-85
2021/01/03 00:44:15;;;;;;;;;;;;;;;1.06;85.44;98809.63;5061266;28;20502;-85
2021/01/03 00:46:41;;;;;;;;;;;;;;;1.27;85.13;98805.47;5058068;28;19916;-84
2021/01/03 00:49:06;;;;;;;;;;;;;;;1.19;84.60;98810.53;5047702;28;19928;-84
2021/01/03 00:51:32;;;;;;;;;;;;;;;1.14;85.93;98807.97;5047644;28;19964;-85
2021/01/03 00:53:57;;;;;;;;;;;;;;;0.99;84.83;98806.22;5064701;28;19959;-85
2021/01/03 00:56:23;;;;;;;;;;;;;;;1.09;86.44;98802.03;5048721;28;19931;-84
2021/01/03 00:58:48;;;;;;;;;;;;;;;1.08;85.28;98795.28;5048087;28;19920;-84
2021/01/03 01:01:14;;;;;;;;;;;;;;;1.14;86.89;98802.91;5047485;28;20296;-85
2021/01/03 01:03:39;;;;;;;;;;;;;;;1.07;86.96;98805.41;5047456;28;19920;-85
2021/01/03 01:06:05;;;;;;;;;;;;;;;1.18;87.84;98804.59;5046956;28;19939;-85
2021/01/03 01:08:30;;;;;;;;;;;;;;;1.28;86.72;98807.13;5048266;28;20413;-85
2021/01/03 01:10:55;;;;;;;;;;;;;;;1.29;86.21;98803.78;5064327;28;20841;-85
2021/01/03 01:13:22;;;;;;;;;;;;;;;1.26;87.71;98809.69;5048216;28;19919;-84
2021/01/03 01:15:47;;;;;;;;;;;;;;;1.19;88.45;98816.44;5063584;28;19978;-84
2021/01/03 01:18:13;;;;;;;;;;;;;;;1.22;87.96;98813.91;5049785;28;20413;-85
2021/01/03 01:20:39;;;;;;;;;;;;;;;1.07;89.28;98813.84;5047830;28;19977;-86
2021/01/03 01:23:04;;;;;;;;;;;;;;;0.92;88.40;98823.97;5052897;28;20042;-85
2021/01/03 01:25:30;;;;;;;;;;;;;;;0.87;88.73;98816.34;5046071;28;20725;-84
2021/01/03 01:27:56;;;;;;;;;;;;;;;0.89;89.00;98816.31;5055265;28;19912;-85
2021/01/03 01:30:22;;;;;;;;;;;;;;;0.84;89.13;98818.84;5063613;28;19923;-85
2021/01/03 01:32:47;;;;;;;;;;;;;;;0.98;89.44;98821.44;5053683;28;20703;-84
2021/01/03 01:35:14;;;;;;;;;;;;;;;0.80;89.66;98823.06;5060996;28;19916;-84
2021/01/03 01:37:39;;;;;;;;;;;;;;;0.85;90.08;98824.78;5061254;28;19916;-86
2021/01/03 01:40:06;;;;;;;;;;;;;;;0.88;89.57;98822.25;5045245;28;19980;-84
2021/01/03 01:42:31;;;;;;;;;;;;;;;0.83;90.49;98818.00;5061895;28;19924;-84
2021/01/03 01:44:57;;;;;;;;;;;;;;;0.90;90.13;98816.34;5046145;28;19935;-84
2021/01/03 01:47:24;;;;;;;;;;;;;;;1.00;91.70;98814.66;5054107;28;19931;-84
2021/01/03 01:49:50;;;;;;;;;;;;;;;1.09;90.11;98814.69;5056493;28;19912;-85
2021/01/03 01:52:16;;;;;;;;;;;;;;;1.00;90.10;98804.53;5045738;28;19920;-84
2021/01/03 01:54:43;;;;;;;;;;;;;;;0.97;89.94;98810.44;5062794;28;19962;-85
2021/01/03 01:57:10;;;;;;;;;;;;;;;1.12;89.32;98804.59;5061779;28;19920;-86
2021/01/03 01:59:35;;;;;;;;;;;;;;;1.11;90.01;98807.94;5055037;28;19920;-85
2021/01/03 02:02:08;;;;;;;;;;;;;;;0.96;90.44;98803.69;5061710;28;19947;-85
2021/01/03 02:04:34;;;;;;;;;;;;;;;1.07;89.92;98798.63;5036182;28;19916;-85
2021/01/03 02:07:08;;;;;;;;;;;;;;;1.10;91.10;98803.72;5050061;28;19924;-85
2021/01/03 02:09:34;;;;;;;;;;;;;;;0.95;89.83;98807.06;5067589;28;19979;-86
2021/01/03 02:12:13;;;;;;;;;;;;;;;0.92;90.22;98807.06;5085934;28;20029;-85
2021/01/03 02:14:39;;;;;;;;;;;;;;;0.89;91.45;98806.19;5059424;28;19977;-85
2021/01/03 02:17:05;;;;;;;;;;;;;;;1.12;90.56;98809.66;5065598;28;19915;-85
2021/01/03 02:19:33;;;;;;;;;;;;;;;1.08;90.24;98802.88;5057594;28;19916;-86
2021/01/03 02:22:08;;;;;;;;;;;;;;;0.86;90.93;98801.09;5064648;28;19931;-85
2021/01/03 02:24:34;;;;;;;;;;;;;;;0.88;91.23;98809.56;5058154;28;19923;-84
2021/01/03 02:27:20;;;;;;;;;;;;;;;0.79;91.22;98806.16;5067330;28;19920;-85
2021/01/03 02:29:46;;;;;;;;;;;;;;;1.18;90.77;98794.44;5084735;28;20012;-85
2021/01/03 02:32:11;;;;;;;;;;;;;;;0.94;89.79;98794.38;5055318;28;20401;-85
2021/01/03 02:34:38;;;;;;;;;;;;;;;1.26;89.96;98799.53;5056743;28;19963;-85
2021/01/03 02:37:11;;;;;;;;;;;;;;;1.20;90.93;98795.28;5049974;28;19927;-85
2021/01/03 02:39:42;;;;;;;;;;;;;;;1.17;89.66;98787.69;5052356;28;19916;-85
2021/01/03 02:42:16;;;;;;;;;;;;;;;1.09;89.56;98785.97;5057780;28;19924;-85
2021/01/03 02:44:41;;;;;;;;;;;;;;;1.02;89.70;98790.16;5068159;28;19920;-85
2021/01/03 02:47:06;;;;;;;;;;;;;;;0.92;90.04;98793.53;5061177;28;20362;-86
2021/01/03 02:49:32;;;;;;;;;;;;;;;1.02;90.64;98793.53;5052674;28;19920;-86
2021/01/03 02:51:57;;;;;;;;;;;;;;;1.07;89.92;98793.56;5058003;28;19920;-85
2021/01/03 02:54:23;;;;;;;;;;;;;;;1.07;91.75;98788.50;5051836;28;19916;-85
2021/01/03 02:56:49;;;;;;;;;;;;;;;1.10;90.43;98785.97;5067733;28;20005;-85
2021/01/03 02:59:14;;;;;;;;;;;;;;;1.06;90.38;98779.19;5050107;28;20046;-85
2021/01/03 03:01:39;;;;;;;;;;;;;;;1.16;90.68;98775.00;5050218;28;20022;-85
2021/01/03 03:04:05;;;;;;;;;;;;;;;1.24;92.19;98774.16;5066948;28;20480;-85
2021/01/03 03:06:30;;;;;;;;;;;;;;;1.27;91.57;98772.47;5049619;28;19935;-84
2021/01/03 03:08:55;;;;;;;;;;;;;;;1.18;91.20;98774.16;5066986;28;20336;-84
2021/01/03 03:11:21;;;;;;;;;;;;;;;1.17;91.42;98766.56;5049887;28;20014;-85
2021/01/03 03:13:46;;;;;;;;;;;;;;;1.06;91.47;98763.16;5049587;28;19958;-85
2021/01/03 03:16:15;;;;;;;;;;;;;;;1.17;91.86;98762.31;5066718;28;19920;-84
2021/01/03 03:18:40;;;;;;;;;;;;;;;1.38;90.83;98760.66;5059156;28;19931;-84
2021/01/03 03:21:06;;;;;;;;;;;;;;;1.22;90.80;98760.63;5057500;28;19924;-84
2021/01/03 03:23:31;;;;;;;;;;;;;;;1.19;90.50;98760.63;5066215;28;19927;-85
2021/01/03 03:25:56;;;;;;;;;;;;;;;1.17;91.03;98762.31;5059136;28;19942;-85
2021/01/03 03:28:22;;;;;;;;;;;;;;;1.04;93.48;98769.03;5057971;28;19915;-84
2021/01/03 03:30:47;;;;;;;;;;;;;;;0.92;91.72;98755.50;5050352;28;19912;-84
2021/01/03 03:33:12;;;;;;;;;;;;;;;1.11;92.97;98761.47;5058708;28;19916;-84
2021/01/03 03:35:38;;;;;;;;;;;;;;;1.02;90.81;98764.81;5067109;28;20004;-85
2021/01/03 03:38:04;;;;;;;;;;;;;;;0.98;91.24;98761.44;5066393;28;19908;-85
2021/01/03 03:40:30;;;;;;;;;;;;;;;0.90;92.71;98758.03;5068257;28;19920;-86
2021/01/03 03:42:55;;;;;;;;;;;;;;;0.92;92.80;98760.56;5050967;28;20648;-85
2021/01/03 03:45:20;;;;;;;;;;;;;;;0.88;92.40;98757.19;5066756;28;19920;-85
2021/01/03 03:47:46;;;;;;;;;;;;;;;0.93;92.58;98758.03;5049450;28;19916;-85
2021/01/03 03:50:13;;;;;;;;;;;;;;;0.95;92.62;98760.56;5049285;28;19920;-85
2021/01/03 03:52:38;;;;;;;;;;;;;;;0.96;92.71;98764.81;5049369;28;19918;-84
2021/01/03 03:55:04;;;;;;;;;;;;;;;0.77;92.86;98759.66;5066519;28;19916;-85
2021/01/03 03:57:29;;;;;;;;;;;;;;;0.86;92.89;98765.63;5065483;28;19924;-85
2021/01/03 03:59:54;;;;;;;;;;;;;;;0.96;92.23;98757.22;5047908;28;20010;-85
2021/01/03 04:02:19;;;;;;;;;;;;;;;0.96;92.35;98752.16;5049136;28;20827;-85
2021/01/03 04:04:45;;;;;;;;;;;;;;;0.98;92.08;98755.50;5065636;28;19916;-85
2021/01/03 04:07:10;;;;;;;;;;;;;;;0.98;93.34;98756.38;5055162;28;19945;-85
2021/01/03 04:09:36;;;;;;;;;;;;;;;1.22;91.45;98750.47;5055928;28;20860;-85
2021/01/03 04:12:01;;;;;;;;;;;;;;;1.12;92.42;98748.78;5057264;28;20000;-84
2021/01/03 04:14:27;;;;;;;;;;;;;;;0.79;92.61;98755.44;5064634;28;19963;-85
2021/01/03 04:16:57;;;;;;;;;;;;;;;1.14;92.30;98746.25;5048934;28;20629;-84
2021/01/03 04:19:23;;;;;;;;;;;;;;;1.00;93.00;98746.22;5063598;28;19959;-85
2021/01/03 04:21:55;;;;;;;;;;;;;;;0.90;93.03;98747.03;5054466;28;19954;-83
2021/01/03 04:24:21;;;;;;;;;;;;;;;0.80;93.26;98747.03;5062112;28;19923;-84
2021/01/03 04:27:06;;;;;;;;;;;;;;;0.81;93.32;98748.69;5052957;28;20407;-82
2021/01/03 04:29:31;;;;;;;;;;;;;;;0.81;93.62;98746.16;5060746;28;19979;-82
2021/01/03 04:31:57;;;;;;;;;;;;;;;0.77;93.36;98749.53;5064177;28;19954;-84
2021/01/03 04:34:23;;;;;;;;;;;;;;;0.70;93.59;98755.41;5064423;28;19916;-82
2021/01/03 04:36:49;;;;;;;;;;;;;;;0.81;94.10;98753.78;5062365;28;19984;-83
2021/01/03 04:39:15;;;;;;;;;;;;;;;0.72;93.85;98760.50;5070255;28;19932;-82
2021/01/03 04:41:41;;;;;;;;;;;;;;;0.71;93.18;98753.72;5052895;28;19924;-84
2021/01/03 04:44:21;;;;;;;;;;;;;;;0.66;93.65;98758.78;5061016;28;19920;-83
2021/01/03 04:46:46;;;;;;;;;;;;;;;0.71;93.15;98756.25;5070193;28;20756;-83
2021/01/03 04:49:20;;;;;;;;;;;;;;;0.83;93.42;98757.16;5060514;28;19920;-81
2021/01/03 04:52:04;;;;;;;;;;;;;;;0.74;93.11;98766.44;5054475;28;19916;-82
2021/01/03 04:54:30;;;;;;;;;;;;;;;0.84;93.16;98752.94;5058409;28;21174;-84
2021/01/03 04:56:55;;;;;;;;;;;;;;;1.06;92.68;98763.97;5056601;28;19912;-83
2021/01/03 04:59:21;;;;;;;;;;;;;;;0.98;91.92;98758.91;5060725;28;19942;-84
2021/01/03 05:01:46;;;;;;;;;;;;;;;0.89;92.58;98760.56;5061263;28;19920;-84
2021/01/03 05:04:30;;;;;;;;;;;;;;;1.04;92.49;98768.19;5073159;28;19967;-84
2021/01/03 05:06:55;;;;;;;;;;;;;;;0.88;92.62;98759.72;5071455;28;19964;-84
2021/01/03 05:09:20;;;;;;;;;;;;;;;0.82;92.03;98762.22;5062968;28;19949;-83
2021/01/03 05:11:58;;;;;;;;;;;;;;;0.79;93.17;98764.75;5070748;28;19923;-83
2021/01/03 05:14:24;;;;;;;;;;;;;;;0.93;92.28;98762.25;5064275;28;19923;-82
2021/01/03 05:16:57;;;;;;;;;;;;;;;0.99;92.61;98757.22;5062214;28;19920;-83
2021/01/03 05:19:23;;;;;;;;;;;;;;;0.72;92.47;98768.94;5056894;28;20390;-83
2021/01/03 05:21:52;;;;;;;;;;;;;;;0.71;92.71;98762.19;5064502;28;19930;-84
2021/01/03 05:24:18;;;;;;;;;;;;;;;0.74;91.76;98759.66;5058065;28;19916;-85
2021/01/03 05:26:44;;;;;;;;;;;;;;;0.70;91.85;98763.03;5067349;28;20132;-85
2021/01/03 05:29:12;;;;;;;;;;;;;;;0.94;93.65;98766.50;5052541;28;19916;-84
2021/01/03 05:31:37;;;;;;;;;;;;;;;0.89;92.16;98765.63;5034121;28;19924;-84
2021/01/03 05:34:04;;;;;;;;;;;;;;;0.73;91.63;98764.72;5059343;28;19920;-84
2021/01/03 05:36:44;;;;;;;;;;;;;;;0.77;91.65;98772.34;5051438;28;19920;-84
2021/01/03 05:39:11;;;;;;;;;;;;;;;0.91;92.03;98766.47;5050637;28;20780;-84
2021/01/03 05:41:57;;;;;;;;;;;;;;;0.89;91.96;98770.69;5052297;28;19921;-84
2021/01/03 05:44:29;;;;;;;;;;;;;;;0.88;92.17;98774.06;5054865;28;19912;-85
2021/01/03 05:47:17;;;;;;;;;;;;;;;0.89;91.46;98776.63;5059893;28;20003;-84
2021/01/03 05:49:42;;;;;;;;;;;;;;;0.86;91.82;98775.75;5079010;28;19991;-86
2021/01/03 05:52:20;;;;;;;;;;;;;;;0.94;90.76;98779.19;5054714;28;20397;-84
2021/01/03 05:54:45;;;;;;;;;;;;;;;0.85;92.01;98779.16;5062728;28;20104;-83
2021/01/03 05:57:27;;;;;;;;;;;;;;;0.81;92.01;98781.66;5055292;28;20384;-85
2021/01/03 05:59:53;;;;;;;;;;;;;;;0.89;90.93;98775.75;5050263;28;19923;-84
2021/01/03 06:02:20;;;;;;;;;;;;;;;0.78;91.40;98794.31;5073930;28;20385;-85
2021/01/03 06:04:45;;;;;;;;;;;;;;;0.83;91.67;98786.75;5075929;28;19915;-86
2021/01/03 06:07:19;;;;;;;;;;;;;;;0.69;91.63;98789.22;5073427;28;19916;-83
2021/01/03 06:09:45;;;;;;;;;;;;;;;0.72;91.68;98791.75;5076589;28;19943;-84
2021/01/03 06:12:16;;;;;;;;;;;;;;;0.73;91.93;98796.00;5067989;28;20389;-85
2021/01/03 06:14:41;;;;;;;;;;;;;;;0.77;91.64;98794.31;5075889;28;19923;-84
2021/01/03 06:17:13;;;;;;;;;;;;;;;0.75;92.01;98799.41;5065922;28;19924;-85
2021/01/03 06:19:48;;;;;;;;;;;;;;;0.87;91.85;98797.72;5065028;28;20169;-85
2021/01/03 06:22:19;;;;;;;;;;;;;;;0.81;92.19;98794.31;5069400;28;20285;-85
2021/01/03 06:24:44;;;;;;;;;;;;;;;0.88;92.26;98804.50;5069394;28;19934;-85
2021/01/03 06:27:18;;;;;;;;;;;;;;;0.82;92.24;98800.22;5061855;28;19916;-85
2021/01/03 06:29:48;;;;;;;;;;;;;;;0.87;92.20;98805.31;5052287;28;19920;-86
2021/01/03 06:32:32;;;;;;;;;;;;;;;0.80;92.69;98801.94;5075061;28;19920;-84
2021/01/03 06:35:02;;;;;;;;;;;;;;;0.79;91.87;98806.16;5092936;28;19916;-84
2021/01/03 06:37:32;;;;;;;;;;;;;;;0.73;91.67;98803.59;5050937;28;19927;-84
2021/01/03 06:40:05;;;;;;;;;;;;;;;0.75;92.53;98804.47;5071820;28;19985;-84
2021/01/03 06:42:43;;;;;;;;;;;;;;;0.79;92.88;98802.78;5047046;28;19920;-84
2021/01/03 06:45:13;;;;;;;;;;;;;;;0.75;92.30;98808.66;5081698;28;19942;-84
2021/01/03 06:47:41;;;;;;;;;;;;;;;0.73;92.44;98811.22;5063336;28;19912;-83
2021/01/03 06:50:09;;;;;;;;;;;;;;;0.69;92.38;98804.44;5073383;28;19920;-83
2021/01/03 06:52:38;;;;;;;;;;;;;;;0.87;93.32;98807.84;5060389;28;19915;-84
2021/01/03 06:55:29;;;;;;;;;;;;;;;0.92;91.66;98801.16;5090739;28;19920;-84
2021/01/03 06:58:03;;;;;;;;;;;;;;;0.93;92.41;98802.81;5055986;28;19920;-82
2021/01/03 07:00:47;;;;;;;;;;;;;;;0.81;92.88;98811.22;5053696;28;19920;-83
2021/01/03 07:03:12;;;;;;;;;;;;;;;0.88;92.58;98795.19;5052682;28;19931;-82
2021/01/03 07:05:46;;;;;;;;;;;;;;;0.80;92.57;98807.84;5070456;28;20420;-84
2021/01/03 07:08:15;;;;;;;;;;;;;;;0.72;92.73;98804.44;5061437;28;19916;-83
2021/01/03 07:10:41;;;;;;;;;;;;;;;0.87;92.49;98803.66;5060169;28;19920;-81
2021/01/03 07:13:28;;;;;;;;;;;;;;;0.81;93.00;98804.47;5070382;28;19916;-83
2021/01/03 07:15:54;;;;;;;;;;;;;;;0.72;92.12;98804.44;5072780;28;19971;-82
2021/01/03 07:18:21;;;;;;;;;;;;;;;0.80;92.85;98810.38;5082209;28;19920;-82
2021/01/03 07:20:46;;;;;;;;;;;;;;;0.77;92.57;98804.44;5080204;28;19916;-82
2021/01/03 07:23:19;;;;;;;;;;;;;;;0.74;92.35;98807.81;5097374;28;19920;-82
2021/01/03 07:25:45;;;;;;;;;;;;;;;0.71;92.46;98807.81;5053988;28;19920;-82
2021/01/03 07:28:17;;;;;;;;;;;;;;;0.76;91.96;98808.69;5078009;28;19930;-82
2021/01/03 07:30:53;;;;;;;;;;;;;;;0.91;92.69;98804.50;5060460;28;19965;-82
2021/01/03 07:33:23;;;;;;;;;;;;;;;0.88;91.81;98807.03;5075728;28;20417;-82
2021/01/03 07:35:48;;;;;;;;;;;;;;;0.77;91.85;98812.91;5074649;28;19912;-81
2021/01/03 07:38:15;;;;;;;;;;;;;;;0.85;91.94;98812.09;5063052;28;20640;-84
2021/01/03 07:40:55;;;;;;;;;;;;;;;0.87;91.93;98810.41;5072976;28;19924;-84
2021/01/03 07:43:22;;;;;;;;;;;;;;;0.82;91.85;98812.91;5067921;28;19920;-83
2021/01/03 07:45:47;;;;;;;;;;;;;;;0.80;91.74;98812.94;5076640;28;19916;-83
2021/01/03 07:48:33;;;;;;;;;;;;;;;0.88;91.68;98814.63;5058234;28;20080;-82
2021/01/03 07:50:58;;;;;;;;;;;;;;;1.02;91.85;98825.66;5078147;28;20199;-83
2021/01/03 07:53:29;;;;;;;;;;;;;;;0.92;90.75;98823.97;5065138;28;19916;-85
2021/01/03 07:55:56;;;;;;;;;;;;;;;0.73;91.06;98826.41;5066062;28;20927;-84
2021/01/03 07:58:22;;;;;;;;;;;;;;;0.73;92.86;98826.41;5053308;28;19924;-85
2021/01/03 08:00:51;;;;;;;;;;;;;;;0.79;91.63;98825.59;5070348;28;20298;-84
2021/01/03 08:03:17;;;;;;;;;;;;;;;0.87;92.51;98823.94;5076921;28;19920;-83
2021/01/03 08:05:44;;;;;;;;;;;;;;;0.79;90.99;98826.44;5060035;28;19926;-84
2021/01/03 08:08:15;;;;;;;;;;;;;;;0.76;91.72;98830.66;5057126;28;20011;-83
2021/01/03 08:10:41;;;;;;;;;;;;;;;0.86;90.68;98826.47;5060182;28;19938;-82
2021/01/03 08:13:08;;;;;;;;;;;;;;;0.76;91.03;98831.50;5060897;28;19924;-83
2021/01/03 08:15:34;;;;;;;;;;;;;;;0.86;90.49;98822.22;5058595;28;19919;-82
2021/01/03 08:18:01;;;;;;;;;;;;;;;0.81;90.73;98829.81;5058730;28;19931;-82
2021/01/03 08:20:27;;;;;;;;;;;;;;;0.82;91.58;98834.06;5072347;28;19900;-82
2021/01/03 08:22:52;;;;;;;;;;;;;;;0.95;90.11;98831.56;5081304;28;19920;-82
2021/01/03 08:25:20;;;;;;;;;;;;;;;0.87;90.07;98838.28;5066395;28;20022;-83
2021/01/03 08:27:49;;;;;;;;;;;;;;;0.80;89.85;98838.28;5079178;28;19916;-83
2021/01/03 08:30:15;;;;;;;;;;;;;;;0.90;90.25;98843.38;5067120;28;19955;-83
2021/01/03 08:32:41;;;;;;;;;;;;;;;0.90;90.63;98834.09;5064928;28;20042;-82
2021/01/03 08:35:08;;;;;;;;;;;;;;;0.80;90.27;98830.66;5064827;28;19920;-85
2021/01/03 08:37:46;;;;;;;;;;;;;;;0.93;89.95;98836.63;5083128;28;19928;-83
2021/01/03 08:40:15;;;;;;;;;;;;;;;0.91;89.94;98840.00;5076453;28;19988;-82
2021/01/03 08:42:41;;;;;;;;;;;;;;;0.91;90.09;98842.53;5072513;28;19920;-82
2021/01/03 08:45:07;;;;;;;;;;;;;;;0.93;90.01;98839.16;5077400;28;20380;-83
2021/01/03 08:47:37;;;;;;;;;;;;;;;0.93;89.66;98833.25;5078271;28;19980;-83
2021/01/03 08:50:07;;;;;;;;;;;;;;;0.83;90.28;98833.22;5077330;28;19916;-83
2021/01/03 08:52:32;;;;;;;;;;;;;;;0.99;90.24;98841.72;5042878;28;19923;-85
2021/01/03 08:55:06;;;;;;;;;;;;;;;0.87;89.32;98843.34;5064653;28;19916;-85
2021/01/03 08:57:31;;;;;;;;;;;;;;;0.82;89.36;98834.06;5068583;28;19920;-81
2021/01/03 08:59:57;;;;;;;;;;;;;;;0.83;89.35;98838.28;5054679;28;19918;-84
2021/01/03 09:02:24;;;;;;;;;;;;;;;0.86;89.65;98831.53;5051581;28;20027;-81
2021/01/03 09:04:50;;;;;;;;;;;;;;;0.86;89.33;98844.19;5070266;28;19924;-83
2021/01/03 09:07:15;;;;;;;;;;;;;;;0.87;89.15;98834.09;5052541;28;19916;-85
2021/01/03 09:09:44;;;;;;;;;;;;;;;0.88;90.03;98840.84;5053769;28;19994;-84
2021/01/03 09:12:10;;;;;;;;;;;;;;;0.94;89.55;98840.88;5045747;28;20011;-80
2021/01/03 09:14:36;;;;;;;;;;;;;;;0.89;89.18;98841.66;5055809;28;19951;-81
2021/01/03 09:17:05;;;;;;;;;;;;;;;0.95;89.29;98850.16;5054152;28;19920;-82
2021/01/03 09:19:30;;;;;;;;;;;;;;;0.97;89.08;98853.53;5063324;28;19912;-81
2021/01/03 09:21:56;;;;;;;;;;;;;;;0.84;90.03;98849.25;5071212;28;19927;-84
2021/01/03 09:24:23;;;;;;;;;;;;;;;0.89;89.80;98847.63;5048762;28;19924;-83
2021/01/03 09:26:48;;;;;;;;;;;;;;;0.94;89.24;98852.69;5052437;28;19978;-82
2021/01/03 09:29:17;;;;;;;;;;;;;;;0.91;90.24;98860.28;5055197;28;19972;-82
2021/01/03 09:32:01;;;;;;;;;;;;;;;1.00;90.80;98850.16;5066762;28;19923;-83
2021/01/03 09:34:29;;;;;;;;;;;;;;;0.90;89.75;98854.38;5074105;28;19920;-81
2021/01/03 09:36:55;;;;;;;;;;;;;;;0.94;90.68;98853.53;5063996;28;19927;-82
2021/01/03 09:39:33;;;;;;;;;;;;;;;1.06;90.39;98860.34;5050354;28;19927;-81
2021/01/03 09:42:12;;;;;;;;;;;;;;;1.09;90.62;98855.28;5072318;28;19920;-82
2021/01/03 09:44:43;;;;;;;;;;;;;;;0.99;90.09;98863.72;5071800;28;20007;-82
2021/01/03 09:47:10;;;;;;;;;;;;;;;0.96;91.25;98856.94;5070264;28;20773;-86
2021/01/03 09:49:35;;;;;;;;;;;;;;;1.00;90.92;98862.84;5062129;28;20501;-82
2021/01/03 09:52:19;;;;;;;;;;;;;;;0.91;90.36;98861.13;5073444;28;19963;-82
2021/01/03 09:55:03;;;;;;;;;;;;;;;0.99;90.77;98864.53;5091286;28;20362;-85
2021/01/03 09:57:34;;;;;;;;;;;;;;;1.03;91.58;98862.88;5072715;28;19946;-83
2021/01/03 09:59:59;;;;;;;;;;;;;;;1.04;90.92;98865.41;5066858;28;19981;-83
2021/01/03 10:02:25;;;;;;;;;;;;;;;1.00;90.61;98865.38;5055760;28;19920;-84
2021/01/03 10:04:50;;;;;;;;;;;;;;;1.02;90.91;98868.78;5058057;28;19951;-83
2021/01/03 10:07:21;;;;;;;;;;;;;;;1.08;91.21;98860.38;5051002;28;19916;-82
2021/01/03 10:09:59;;;;;;;;;;;;;;;1.13;90.73;98861.22;5061629;28;19924;-82
2021/01/03 10:12:35;;;;;;;;;;;;;;;1.03;91.14;98860.34;5050660;28;19965;-82
2021/01/03 10:15:03;;;;;;;;;;;;;;;1.00;91.08;98855.25;5051476;28;19980;-86
2021/01/03 10:17:29;;;;;;;;;;;;;;;1.15;91.04;98852.78;5040727;28;19935;-81
2021/01/03 10:19:54;;;;;;;;;;;;;;;1.09;92.09;98857.81;5029505;28;19917;-82
2021/01/03 10:22:30;;;;;;;;;;;;;;;1.20;91.83;98855.31;5037118;28;19982;-83
2021/01/03 10:24:56;;;;;;;;;;;;;;;1.06;91.75;98855.28;5056598;28;19924;-81
2021/01/03 10:27:22;;;;;;;;;;;;;;;1.23;91.24;98848.59;5031876;28;19912;-83
2021/01/03 10:29:47;;;;;;;;;;;;;;;1.20;91.41;98850.25;5036288;28;20328;-84
2021/01/03 10:32:12;;;;;;;;;;;;;;;1.20;91.46;98848.56;5049059;28;20003;-83
2021/01/03 10:34:38;;;;;;;;;;;;;;;1.17;92.38;98848.56;5033784;28;20197;-84
2021/01/03 10:37:05;;;;;;;;;;;;;;;1.19;90.88;98851.09;5047034;28;20793;-82
2021/01/03 10:39:31;;;;;;;;;;;;;;;1.21;91.11;98850.25;5033008;28;19928;-83
2021/01/03 10:41:57;;;;;;;;;;;;;;;1.15;92.11;98845.16;5026250;28;20424;-81
2021/01/03 10:44:22;;;;;;;;;;;;;;;1.14;91.73;98843.47;5038990;28;19934;-86
2021/01/03 10:46:48;;;;;;;;;;;;;;;1.11;90.41;98843.44;5049168;28;20030;-84
2021/01/03 10:49:13;;;;;;;;;;;;;;;1.19;92.18;98846.03;5034991;28;19920;-84
2021/01/03 10:51:45;;;;;;;;;;;;;;;1.27;90.48;98838.44;5049868;28;19961;-84
2021/01/03 10:54:11;;;;;;;;;;;;;;;1.23;90.86;98846.03;5051780;28;19916;-84
2021/01/03 10:56:37;;;;;;;;;;;;;;;1.20;91.16;98835.88;5035260;28;19917;-83
2021/01/03 10:59:04;;;;;;;;;;;;;;;1.30;90.73;98834.22;5051290;28;20389;-84
2021/01/03 11:01:29;;;;;;;;;;;;;;;1.25;91.73;98836.75;5051442;28;19925;-84
2021/01/03 11:03:55;;;;;;;;;;;;;;;1.38;90.43;98836.78;5032269;28;19921;-86
2021/01/03 11:06:21;;;;;;;;;;;;;;;1.45;90.33;98838.47;5046567;28;20593;-82
2021/01/03 11:08:46;;;;;;;;;;;;;;;1.25;90.55;98836.75;5050114;28;19939;-85
2021/01/03 11:11:17;;;;;;;;;;;;;;;1.24;90.36;98840.13;5052605;28;20873;-84
2021/01/03 11:13:42;;;;;;;;;;;;;;;1.41;90.54;98841.84;5028102;28;19921;-83
2021/01/03 11:16:08;;;;;;;;;;;;;;;1.25;91.78;98839.28;5038282;28;20722;-85
2021/01/03 11:18:33;;;;;;;;;;;;;;;1.25;91.41;98836.75;5057870;28;19928;-82
2021/01/03 11:20:59;;;;;;;;;;;;;;;1.32;91.57;98829.13;5070003;28;19916;-82
2021/01/03 11:23:24;;;;;;;;;;;;;;;1.34;92.29;98827.47;5052548;28;20386;-83
2021/01/03 11:25:52;;;;;;;;;;;;;;;1.44;93.20;98832.56;5065042;28;21036;-83
2021/01/03 11:28:17;;;;;;;;;;;;;;;1.30;92.70;98819.00;5063727;28;19967;-86
2021/01/03 11:30:42;;;;;;;;;;;;;;;1.28;93.17;98824.91;5069691;28;19939;-83
2021/01/03 11:33:08;;;;;;;;;;;;;;;1.36;93.23;98815.63;5053630;28;20380;-83
2021/01/03 11:35:33;;;;;;;;;;;;;;;1.17;93.02;98818.13;5055652;28;19912;-84
2021/01/03 11:37:59;;;;;;;;;;;;;;;1.21;94.40;98814.75;5064831;28;19927;-85
2021/01/03 11:40:24;;;;;;;;;;;;;;;1.18;93.92;98809.66;5053798;28;19920;-84
2021/01/03 11:42:49;;;;;;;;;;;;;;;1.21;95.49;98813.91;5069518;28;20638;-84
2021/01/03 11:45:16;;;;;;;;;;;;;;;1.24;95.12;98813.91;5071017;28;19927;-85
2021/01/03 11:47:41;;;;;;;;;;;;;;;1.29;94.98;98811.38;5071697;28;19916;-84
2021/01/03 11:50:11;;;;;;;;;;;;;;;1.17;94.71;98815.59;5065371;28;20815;-82
2021/01/03 11:52:37;;;;;;;;;;;;;;;1.10;96.27;98813.88;5069289;28;20015;-83
2021/01/03 11:55:03;;;;;;;;;;;;;;;1.18;95.93;98814.72;5053567;28;20023;-84
2021/01/03 11:57:28;;;;;;;;;;;;;;;1.20;96.16;98807.97;5053875;28;19920;-83
2021/01/03 11:59:54;;;;;;;;;;;;;;;1.22;97.24;98811.34;5049642;28;19916;-84
2021/01/03 12:02:19;;;;;;;;;;;;;;;1.35;96.13;98798.72;5051877;28;19928;-84
2021/01/03 12:04:45;;;;;;;;;;;;;;;1.33;96.75;98803.78;5067454;28;19927;-83
2021/01/03 12:07:11;;;;;;;;;;;;;;;1.28;96.59;98799.53;5050546;28;19912;-83
2021/01/03 12:09:37;;;;;;;;;;;;;;;1.27;97.04;98797.84;5062141;28;19916;-85
2021/01/03 12:12:04;;;;;;;;;;;;;;;1.29;97.12;98796.16;5053598;28;20967;-86
2021/01/03 12:14:29;;;;;;;;;;;;;;;1.25;97.28;98798.72;5068544;28;19919;-81
2021/01/03 12:16:55;;;;;;;;;;;;;;;1.35;96.83;98798.72;5070759;28;19920;-83
2021/01/03 12:19:21;;;;;;;;;;;;;;;1.38;97.01;98791.94;5071642;28;19931;-82
2021/01/03 12:21:46;;;;;;;;;;;;;;;1.37;97.37;98799.53;5071825;28;20352;-84
2021/01/03 12:24:12;;;;;;;;;;;;;;;1.44;96.90;98797.03;5052654;28;19916;-83
2021/01/03 12:26:38;;;;;;;;;;;;;;;1.55;97.05;98803.81;5069171;28;19924;-83
2021/01/03 12:29:04;;;;;;;;;;;;;;;1.32;97.05;98804.59;5054448;28;19923;-80
2021/01/03 12:31:33;;;;;;;;;;;;;;;1.21;97.82;98786.00;5071242;28;19920;-84
2021/01/03 12:33:59;;;;;;;;;;;;;;;1.20;98.31;98797.81;5070359;28;19920;-80
2021/01/03 12:36:24;;;;;;;;;;;;;;;1.10;98.41;98793.59;5072797;28;19923;-83
2021/01/03 12:38:50;;;;;;;;;;;;;;;1.22;98.59;98791.06;5069747;28;19919;-83
2021/01/03 12:41:19;;;;;;;;;;;;;;;1.15;98.37;98784.28;5041044;28;20614;-83
2021/01/03 12:43:45;;;;;;;;;;;;;;;1.22;98.86;98793.59;5056234;28;19919;-81
2021/01/03 12:46:11;;;;;;;;;;;;;;;1.14;99.20;98790.22;5056685;28;19943;-81
2021/01/03 12:48:36;;;;;;;;;;;;;;;1.31;99.36;98789.41;5055194;28;20015;-83
2021/01/03 12:51:02;;;;;;;;;;;;;;;1.20;99.54;98790.22;5073631;28;19916;-81
2021/01/03 12:53:28;;;;;;;;;;;;;;;1.03;100.00;98789.34;5067451;28;19920;-81
2021/01/03 12:55:53;;;;;;;;;;;;;;;1.12;100.00;98796.97;5063166;28;19957;-82
2021/01/03 12:58:18;;;;;;;;;;;;;;;1.19;99.84;98796.16;5067732;28;19939;-83
2021/01/03 13:00:44;;;;;;;;;;;;;;;1.06;100.00;98799.47;5059092;28;19916;-84